Gregory, Arkansas
Current Conditions -  °F | °C
As of 7:56 AM on Tuesday 27 Jan 2015 (Local Time) from KSRC Reporting Station
Clear Clear  
Wind Chill: 34°   Ceiling: Unl
Heat Index: 34°   Visibility: 10mi
Dew Point: 33°   Wind: 3mph
Humidity: 96%   Direction: 10°N
Pressure: 30.14"   Gusts: NA
Location:  35.16°N, 91.34°W
Report Text: KSRC 271356Z AUTO 01003KT 10SM CLR 01/01 A3014 RMK AO2 SLP212 T00110006 FZRANO TSNO
Loading
Personal Weather Stations






























Interactive Weather Map New forecast layout! Learn more

10-Day Weather Forecast

Advertisements
Track Severe Weather on mobile